Strona główna
METAR-TAF:

METAR-TAF

Lotnisko :

Port lotniczy Maroua

Maroua, Kamerun

Szerokość geograficzna: 10-27N, Długość geograficzna: 014-15E, wysokość: 423 m

Aktualna obserwacja pogody

Raport powstał 7 godziny i 3 minut temu, godzina 15:00 UTC
Wiatr 10 kt od północ, zmienny między północno-północny zachód i północny wschód
Temperatura 33°C
Wilgotność 8%
Ciśnienie 1012 hPa
Widzialność 10 km lub więcej
Brak chmur poniżej 1500 m i brak chmur cumulonimbus

METAR: FKKL 291500Z 36010KT 330V050 CAVOK 33/M06 Q1012

czas: 23:03 (22:03 UTC)

Prognoza

Raport powstał 11 godziny i 3 minut temu, godzina 11:00 UTC
Prognoza ważna od 29 godzina 12 UTC do 29 godzina 24 UTC
Wiatr 7 kt od północny wschód
Widzialność 10 km lub więcej
Brak chmur poniżej 1500 m i brak chmur cumulonimbus

TAF: FKKL 291100Z 2912/2924 05007KT CAVOK

Obserwacja i prognoza pogody dla ponad 4000 lotnisk (raport METAR i TAF).

Dostępne stacje oznaczono żółtymi i czerwonymi punktami na mapie.

Najedź kursorem aby zobaczyć nazwę stacji.

Kliknij aby zobaczyć obserwacje i prognozy pogody.

Aby zmienić mapę: kliknij na zielony przycisk z czarnym krzyżykiem, aby powiększyć; na zielony przycisk z myślnikiem, aby pomniejszyć; na zielone strzałki, aby przejść do map sąsiednich.


METAR-TAF: